sensor_id;sensor_type;location;lat;lon;timestamp;pressure;altitude;pressure_sealevel;temperature;humidity
7309;BME280;3695;53.330;9.876;2023-01-31T00:01:05;102933.84;;;3.85;100.00
7309;BME280;3695;53.330;9.876;2023-01-31T00:03:32;102950.69;;;3.98;100.00
7309;BME280;3695;53.330;9.876;2023-01-31T00:06:08;102938.72;;;3.91;100.00
7309;BME280;3695;53.330;9.876;2023-01-31T00:08:35;102941.16;;;3.83;100.00
7309;BME280;3695;53.330;9.876;2023-01-31T00:11:01;102938.72;;;3.91;100.00
7309;BME280;3695;53.330;9.876;2023-01-31T00:13:28;102942.88;;;4.06;100.00
7309;BME280;3695;53.330;9.876;2023-01-31T00:15:54;102924.47;;;3.90;100.00
7309;BME280;3695;53.330;9.876;2023-01-31T00:18:22;102930.41;;;4.05;100.00
7309;BME280;3695;53.330;9.876;2023-01-31T00:20:49;102924.09;;;3.95;100.00
7309;BME280;3695;53.330;9.876;2023-01-31T00:23:15;102910.56;;;3.96;100.00
7309;BME280;3695;53.330;9.876;2023-01-31T00:25:42;102922.50;;;4.03;100.00
7309;BME280;3695;53.330;9.876;2023-01-31T00:28:08;102937.75;;;3.92;100.00
7309;BME280;3695;53.330;9.876;2023-01-31T00:30:35;102943.59;;;3.97;100.00
7309;BME280;3695;53.330;9.876;2023-01-31T00:33:01;102962.59;;;4.16;100.00
7309;BME280;3695;53.330;9.876;2023-01-31T00:35:29;102961.25;;;4.22;100.00
7309;BME280;3695;53.330;9.876;2023-01-31T00:37:56;102946.78;;;3.79;100.00
7309;BME280;3695;53.330;9.876;2023-01-31T00:40:22;102970.19;;;4.00;100.00
7309;BME280;3695;53.330;9.876;2023-01-31T00:42:48;102958.47;;;3.90;100.00
7309;BME280;3695;53.330;9.876;2023-01-31T00:45:15;102931.75;;;3.77;100.00
7309;BME280;3695;53.330;9.876;2023-01-31T00:47:41;102938.34;;;3.73;100.00
7309;BME280;3695;53.330;9.876;2023-01-31T00:50:12;102933.34;;;3.68;100.00
7309;BME280;3695;53.330;9.876;2023-01-31T00:52:40;102934.31;;;3.56;100.00
7309;BME280;3695;53.330;9.876;2023-01-31T00:55:07;102914.47;;;3.81;100.00
7309;BME280;3695;53.330;9.876;2023-01-31T00:57:34;102887.97;;;3.76;100.00
7309;BME280;3695;53.330;9.876;2023-01-31T01:00:01;102877.75;;;3.59;100.00
7309;BME280;3695;53.330;9.876;2023-01-31T01:02:27;102891.66;;;3.53;100.00
7309;BME280;3695;53.330;9.876;2023-01-31T01:04:53;102892.63;;;3.63;100.00
7309;BME280;3695;53.330;9.876;2023-01-31T01:07:20;102888.59;;;3.35;100.00
7309;BME280;3695;53.330;9.876;2023-01-31T01:09:48;102874.59;;;3.54;100.00
7309;BME280;3695;53.330;9.876;2023-01-31T01:12:16;102871.41;;;3.60;100.00
7309;BME280;3695;53.330;9.876;2023-01-31T01:14:43;102879.47;;;3.60;100.00
7309;BME280;3695;53.330;9.876;2023-01-31T01:17:09;102867.03;;;3.48;100.00
7309;BME280;3695;53.330;9.876;2023-01-31T01:19:35;102877.25;;;3.43;100.00
7309;BME280;3695;53.330;9.876;2023-01-31T01:22:02;102875.19;;;3.58;100.00
7309;BME280;3695;53.330;9.876;2023-01-31T01:24:28;102861.31;;;3.53;100.00
7309;BME280;3695;53.330;9.876;2023-01-31T01:26:56;102859.59;;;3.52;100.00
7309;BME280;3695;53.330;9.876;2023-01-31T01:29:23;102841.41;;;3.77;100.00
7309;BME280;3695;53.330;9.876;2023-01-31T01:31:50;102826.06;;;3.68;100.00
7309;BME280;3695;53.330;9.876;2023-01-31T01:34:16;102823.94;;;4.05;100.00
7309;BME280;3695;53.330;9.876;2023-01-31T01:36:43;102800.16;;;4.01;100.00
7309;BME280;3695;53.330;9.876;2023-01-31T01:39:10;102792.19;;;3.78;100.00
7309;BME280;3695;53.330;9.876;2023-01-31T01:41:38;102792.41;;;3.87;100.00
7309;BME280;3695;53.330;9.876;2023-01-31T01:47:11;102759.63;;;3.83;100.00
7309;BME280;3695;53.330;9.876;2023-01-31T01:49:39;102766.06;;;3.92;100.00
7309;BME280;3695;53.330;9.876;2023-01-31T01:52:08;102770.91;;;3.98;100.00
7309;BME280;3695;53.330;9.876;2023-01-31T01:54:39;102769.75;;;4.11;100.00
7309;BME280;3695;53.330;9.876;2023-01-31T01:57:10;102760.13;;;4.09;100.00
7309;BME280;3695;53.330;9.876;2023-01-31T01:59:40;102786.44;;;4.26;100.00
7309;BME280;3695;53.330;9.876;2023-01-31T02:02:09;102781.69;;;4.19;100.00
7309;BME280;3695;53.330;9.876;2023-01-31T02:04:37;102803.94;;;4.09;100.00
7309;BME280;3695;53.330;9.876;2023-01-31T02:07:06;102810.19;;;3.99;100.00
7309;BME280;3695;53.330;9.876;2023-01-31T02:09:37;102827.59;;;4.04;100.00
7309;BME280;3695;53.330;9.876;2023-01-31T02:12:05;102855.06;;;3.97;100.00
7309;BME280;3695;53.330;9.876;2023-01-31T02:14:31;102878.84;;;4.01;100.00
7309;BME280;3695;53.330;9.876;2023-01-31T02:16:58;102895.91;;;4.00;100.00
7309;BME280;3695;53.330;9.876;2023-01-31T02:19:33;102899.72;;;3.87;100.00
7309;BME280;3695;53.330;9.876;2023-01-31T02:22:11;102926.25;;;4.12;100.00
7309;BME280;3695;53.330;9.876;2023-01-31T02:27:57;102937.34;;;4.19;100.00
7309;BME280;3695;53.330;9.876;2023-01-31T02:30:53;102945.78;;;4.14;100.00
7309;BME280;3695;53.330;9.876;2023-01-31T02:33:29;102946.28;;;4.08;100.00
7309;BME280;3695;53.330;9.876;2023-01-31T02:36:09;102962.59;;;4.16;100.00
7309;BME280;3695;53.330;9.876;2023-01-31T02:38:47;102965.28;;;4.16;100.00
7309;BME280;3695;53.330;9.876;2023-01-31T02:41:22;102971.16;;;4.10;100.00
7309;BME280;3695;53.330;9.876;2023-01-31T02:43:53;102983.13;;;4.06;100.00
7309;BME280;3695;53.330;9.876;2023-01-31T02:46:42;102993.00;;;3.94;100.00
7309;BME280;3695;53.330;9.876;2023-01-31T02:49:17;103002.25;;;4.13;100.00
7309;BME280;3695;53.330;9.876;2023-01-31T02:52:02;103013.38;;;3.97;100.00
7309;BME280;3695;53.330;9.876;2023-01-31T02:54:52;103033.38;;;4.04;100.00
7309;BME280;3695;53.330;9.876;2023-01-31T02:57:39;103057.88;;;3.88;100.00
7309;BME280;3695;53.330;9.876;2023-01-31T03:00:08;103074.22;;;3.96;100.00
7309;BME280;3695;53.330;9.876;2023-01-31T03:02:35;103082.28;;;4.07;100.00
7309;BME280;3695;53.330;9.876;2023-01-31T03:05:03;103097.00;;;3.79;100.00
7309;BME280;3695;53.330;9.876;2023-01-31T03:07:32;103136.91;;;3.71;100.00
7309;BME280;3695;53.330;9.876;2023-01-31T03:10:09;103157.75;;;3.68;100.00
7309;BME280;3695;53.330;9.876;2023-01-31T03:12:52;103183.50;;;3.94;100.00
7309;BME280;3695;53.330;9.876;2023-01-31T03:15:30;103191.53;;;3.94;100.00
7309;BME280;3695;53.330;9.876;2023-01-31T03:18:17;103185.53;;;3.67;100.00
7309;BME280;3695;53.330;9.876;2023-01-31T03:20:49;103206.44;;;3.74;100.00
7309;BME280;3695;53.330;9.876;2023-01-31T03:23:20;103200.66;;;3.68;100.00
7309;BME280;3695;53.330;9.876;2023-01-31T03:25:48;103209.81;;;3.89;100.00
7309;BME280;3695;53.330;9.876;2023-01-31T03:28:17;103197.59;;;3.85;100.00
7309;BME280;3695;53.330;9.876;2023-01-31T03:30:47;103173.94;;;3.79;100.00
7309;BME280;3695;53.330;9.876;2023-01-31T03:33:18;103178.72;;;3.87;100.00
7309;BME280;3695;53.330;9.876;2023-01-31T03:35:52;103169.22;;;3.70;100.00
7309;BME280;3695;53.330;9.876;2023-01-31T03:38:25;103161.38;;;3.79;100.00
7309;BME280;3695;53.330;9.876;2023-01-31T03:40:56;103148.47;;;3.85;100.00
7309;BME280;3695;53.330;9.876;2023-01-31T03:43:34;103174.63;;;4.05;100.00
7309;BME280;3695;53.330;9.876;2023-01-31T03:46:06;103163.66;;;4.08;100.00
7309;BME280;3695;53.330;9.876;2023-01-31T03:48:39;103148.84;;;3.91;100.00
7309;BME280;3695;53.330;9.876;2023-01-31T03:51:11;103171.84;;;4.18;100.00
7309;BME280;3695;53.330;9.876;2023-01-31T03:53:45;103167.63;;;3.91;100.00
7309;BME280;3695;53.330;9.876;2023-01-31T03:56:16;103167.31;;;4.07;100.00
7309;BME280;3695;53.330;9.876;2023-01-31T03:58:46;103170.94;;;3.95;100.00
7309;BME280;3695;53.330;9.876;2023-01-31T04:01:16;103214.28;;;4.13;100.00
7309;BME280;3695;53.330;9.876;2023-01-31T04:03:46;103227.22;;;4.19;100.00
7309;BME280;3695;53.330;9.876;2023-01-31T04:06:15;103230.50;;;4.11;100.00
7309;BME280;3695;53.330;9.876;2023-01-31T04:08:42;103242.25;;;4.21;100.00
7309;BME280;3695;53.330;9.876;2023-01-31T04:11:10;103255.88;;;4.07;100.00
7309;BME280;3695;53.330;9.876;2023-01-31T04:13:38;103283.94;;;4.14;100.00
7309;BME280;3695;53.330;9.876;2023-01-31T04:16:05;103306.44;;;4.24;100.00
7309;BME280;3695;53.330;9.876;2023-01-31T04:18:32;103312.66;;;4.25;100.00
7309;BME280;3695;53.330;9.876;2023-01-31T04:20:58;103328.00;;;4.35;100.00
7309;BME280;3695;53.330;9.876;2023-01-31T04:23:26;103319.34;;;4.19;100.00
7309;BME280;3695;53.330;9.876;2023-01-31T04:25:53;103332.94;;;4.05;100.00
7309;BME280;3695;53.330;9.876;2023-01-31T04:28:19;103372.28;;;4.17;100.00
7309;BME280;3695;53.330;9.876;2023-01-31T04:30:51;103415.69;;;4.11;100.00
7309;BME280;3695;53.330;9.876;2023-01-31T04:33:17;103454.31;;;4.34;100.00
7309;BME280;3695;53.330;9.876;2023-01-31T04:35:44;103473.78;;;4.12;100.00
7309;BME280;3695;53.330;9.876;2023-01-31T04:38:10;103490.94;;;4.22;100.00
7309;BME280;3695;53.330;9.876;2023-01-31T04:40:38;103492.91;;;4.07;100.00
7309;BME280;3695;53.330;9.876;2023-01-31T04:43:04;103530.88;;;4.14;100.00
7309;BME280;3695;53.330;9.876;2023-01-31T04:45:31;103576.22;;;3.93;100.00
7309;BME280;3695;53.330;9.876;2023-01-31T04:47:57;103631.94;;;4.15;100.00
7309;BME280;3695;53.330;9.876;2023-01-31T04:50:24;103668.53;;;4.16;100.00
7309;BME280;3695;53.330;9.876;2023-01-31T04:52:50;103670.47;;;4.14;100.00
7309;BME280;3695;53.330;9.876;2023-01-31T04:55:17;103694.63;;;4.14;100.00
7309;BME280;3695;53.330;9.876;2023-01-31T04:57:45;103725.66;;;4.18;100.00
7309;BME280;3695;53.330;9.876;2023-01-31T05:00:12;103742.28;;;4.10;100.00
7309;BME280;3695;53.330;9.876;2023-01-31T05:02:39;103773.19;;;4.30;100.00
7309;BME280;3695;53.330;9.876;2023-01-31T05:05:07;103798.69;;;4.23;100.00
7309;BME280;3695;53.330;9.876;2023-01-31T05:07:33;103820.13;;;4.37;100.00
7309;BME280;3695;53.330;9.876;2023-01-31T05:10:00;103806.41;;;4.15;100.00
7309;BME280;3695;53.330;9.876;2023-01-31T05:12:26;103817.97;;;4.03;100.00
7309;BME280;3695;53.330;9.876;2023-01-31T05:14:54;103885.31;;;4.13;100.00
7309;BME280;3695;53.330;9.876;2023-01-31T05:17:21;103907.34;;;4.18;100.00
7309;BME280;3695;53.330;9.876;2023-01-31T05:19:53;103907.06;;;4.22;100.00
7309;BME280;3695;53.330;9.876;2023-01-31T05:22:20;103897.28;;;4.21;100.00
7309;BME280;3695;53.330;9.876;2023-01-31T05:24:47;103892.56;;;4.25;100.00
7309;BME280;3695;53.330;9.876;2023-01-31T05:27:14;103885.75;;;4.33;100.00
7309;BME280;3695;53.330;9.876;2023-01-31T05:29:41;103869.47;;;4.22;100.00
7309;BME280;3695;53.330;9.876;2023-01-31T05:32:09;103850.47;;;4.25;100.00
7309;BME280;3695;53.330;9.876;2023-01-31T05:34:35;103825.56;;;4.23;100.00
7309;BME280;3695;53.330;9.876;2023-01-31T05:37:02;103836.38;;;4.49;100.00
7309;BME280;3695;53.330;9.876;2023-01-31T05:39:29;103796.84;;;4.38;100.00
7309;BME280;3695;53.330;9.876;2023-01-31T05:41:56;103789.44;;;4.41;100.00
7309;BME280;3695;53.330;9.876;2023-01-31T05:44:23;103767.41;;;4.36;100.00
7309;BME280;3695;53.330;9.876;2023-01-31T05:46:49;103750.59;;;4.20;100.00
7309;BME280;3695;53.330;9.876;2023-01-31T05:49:17;103753.81;;;4.25;100.00
7309;BME280;3695;53.330;9.876;2023-01-31T05:51:43;103746.34;;;4.30;100.00
7309;BME280;3695;53.330;9.876;2023-01-31T05:54:11;103717.56;;;4.32;100.00
7309;BME280;3695;53.330;9.876;2023-01-31T05:56:37;103724.09;;;4.28;100.00
7309;BME280;3695;53.330;9.876;2023-01-31T05:59:04;103718.53;;;4.44;100.00
7309;BME280;3695;53.330;9.876;2023-01-31T06:01:30;103681.03;;;4.42;100.00
7309;BME280;3695;53.330;9.876;2023-01-31T06:03:56;103661.69;;;4.37;100.00
7309;BME280;3695;53.330;9.876;2023-01-31T06:06:24;103639.56;;;4.34;100.00
7309;BME280;3695;53.330;9.876;2023-01-31T06:08:51;103636.56;;;4.38;100.00
7309;BME280;3695;53.330;9.876;2023-01-31T06:11:17;103610.97;;;4.20;100.00
7309;BME280;3695;53.330;9.876;2023-01-31T06:13:44;103606.72;;;4.30;100.00
7309;BME280;3695;53.330;9.876;2023-01-31T06:16:10;103599.59;;;4.42;100.00
7309;BME280;3695;53.330;9.876;2023-01-31T06:18:37;103580.50;;;4.21;100.00
7309;BME280;3695;53.330;9.876;2023-01-31T06:21:04;103583.53;;;4.29;100.00
7309;BME280;3695;53.330;9.876;2023-01-31T06:23:32;103594.44;;;4.52;100.00
7309;BME280;3695;53.330;9.876;2023-01-31T06:25:59;103555.13;;;4.25;100.00
7309;BME280;3695;53.330;9.876;2023-01-31T06:28:25;103554.47;;;4.47;100.00
7309;BME280;3695;53.330;9.876;2023-01-31T06:30:52;103518.41;;;4.38;100.00
7309;BME280;3695;53.330;9.876;2023-01-31T06:33:18;103492.66;;;4.36;100.00
7309;BME280;3695;53.330;9.876;2023-01-31T06:35:45;103459.03;;;4.30;100.00
7309;BME280;3695;53.330;9.876;2023-01-31T06:38:11;103443.44;;;4.35;100.00
7309;BME280;3695;53.330;9.876;2023-01-31T06:40:39;103430.78;;;4.37;100.00
7309;BME280;3695;53.330;9.876;2023-01-31T06:43:05;103403.00;;;4.50;100.00
7309;BME280;3695;53.330;9.876;2023-01-31T06:45:32;103366.31;;;4.37;100.00
7309;BME280;3695;53.330;9.876;2023-01-31T06:47:58;103340.84;;;4.43;100.00
7309;BME280;3695;53.330;9.876;2023-01-31T06:50:25;103300.91;;;4.38;100.00
7309;BME280;3695;53.330;9.876;2023-01-31T06:52:52;103279.69;;;4.47;100.00
7309;BME280;3695;53.330;9.876;2023-01-31T06:55:18;103260.88;;;4.35;100.00
7309;BME280;3695;53.330;9.876;2023-01-31T06:57:47;103251.50;;;4.52;100.00
7309;BME280;3695;53.330;9.876;2023-01-31T07:00:14;103229.50;;;4.36;100.00
7309;BME280;3695;53.330;9.876;2023-01-31T07:02:42;103215.47;;;4.32;100.00
7309;BME280;3695;53.330;9.876;2023-01-31T07:05:09;103205.38;;;4.47;100.00
7309;BME280;3695;53.330;9.876;2023-01-31T07:07:35;103181.06;;;4.37;100.00
7309;BME280;3695;53.330;9.876;2023-01-31T07:10:02;103175.69;;;4.49;100.00
7309;BME280;3695;53.330;9.876;2023-01-31T07:12:28;103155.69;;;4.53;100.00
7309;BME280;3695;53.330;9.876;2023-01-31T07:14:57;103142.19;;;4.19;100.00
7309;BME280;3695;53.330;9.876;2023-01-31T07:17:23;103155.56;;;4.43;100.00
7309;BME280;3695;53.330;9.876;2023-01-31T07:19:50;103143.34;;;4.39;100.00
7309;BME280;3695;53.330;9.876;2023-01-31T07:22:17;103130.66;;;4.52;100.00
7309;BME280;3695;53.330;9.876;2023-01-31T07:24:44;103124.19;;;4.55;100.00
7309;BME280;3695;53.330;9.876;2023-01-31T07:27:11;103086.09;;;4.50;100.00
7309;BME280;3695;53.330;9.876;2023-01-31T07:29:38;103094.28;;;4.48;100.00
7309;BME280;3695;53.330;9.876;2023-01-31T07:32:06;103097.22;;;4.56;100.00
7309;BME280;3695;53.330;9.876;2023-01-31T07:34:32;103086.09;;;4.50;100.00
7309;BME280;3695;53.330;9.876;2023-01-31T07:36:59;103083.66;;;4.35;100.00
7309;BME280;3695;53.330;9.876;2023-01-31T07:39:25;103080.75;;;4.50;100.00
7309;BME280;3695;53.330;9.876;2023-01-31T07:41:54;103069.38;;;4.46;100.00
7309;BME280;3695;53.330;9.876;2023-01-31T07:44:21;103082.69;;;4.59;100.00
7309;BME280;3695;53.330;9.876;2023-01-31T07:46:47;103066.44;;;4.60;100.00
7309;BME280;3695;53.330;9.876;2023-01-31T07:49:16;103059.25;;;4.61;100.00
7309;BME280;3695;53.330;9.876;2023-01-31T07:51:43;103046.28;;;4.66;100.00
7309;BME280;3695;53.330;9.876;2023-01-31T07:54:10;103054.47;;;4.64;100.00
7309;BME280;3695;53.330;9.876;2023-01-31T07:56:37;103026.28;;;4.59;100.00
7309;BME280;3695;53.330;9.876;2023-01-31T07:59:03;103005.78;;;4.58;100.00
7309;BME280;3695;53.330;9.876;2023-01-31T08:01:30;103029.44;;;4.64;100.00
7309;BME280;3695;53.330;9.876;2023-01-31T08:04:15;103006.13;;;4.76;100.00
7309;BME280;3695;53.330;9.876;2023-01-31T08:06:44;102998.41;;;4.71;100.00
7309;BME280;3695;53.330;9.876;2023-01-31T08:09:11;103008.88;;;4.96;100.00
7309;BME280;3695;53.330;9.876;2023-01-31T08:11:38;102996.53;;;4.94;100.00
7309;BME280;3695;53.330;9.876;2023-01-31T08:14:04;102992.06;;;4.83;100.00
7309;BME280;3695;53.330;9.876;2023-01-31T08:16:32;102981.19;;;4.85;100.00
7309;BME280;3695;53.330;9.876;2023-01-31T08:19:00;102994.56;;;4.96;100.00
7309;BME280;3695;53.330;9.876;2023-01-31T08:21:27;102975.25;;;5.02;100.00
7309;BME280;3695;53.330;9.876;2023-01-31T08:23:55;102948.75;;;4.97;100.00
7309;BME280;3695;53.330;9.876;2023-01-31T08:26:21;102936.44;;;4.95;100.00
7309;BME280;3695;53.330;9.876;2023-01-31T08:28:49;102899.22;;;4.90;100.00
7309;BME280;3695;53.330;9.876;2023-01-31T08:31:19;102902.66;;;4.81;100.00
7309;BME280;3695;53.330;9.876;2023-01-31T08:33:46;102924.06;;;5.03;100.00
7309;BME280;3695;53.330;9.876;2023-01-31T08:36:16;102904.25;;;5.04;100.00
7309;BME280;3695;53.330;9.876;2023-01-31T08:38:43;102896.84;;;4.97;100.00
7309;BME280;3695;53.330;9.876;2023-01-31T08:41:11;102901.69;;;5.03;100.00
7309;BME280;3695;53.330;9.876;2023-01-31T08:43:38;102902.28;;;5.06;100.00
7309;BME280;3695;53.330;9.876;2023-01-31T08:46:05;102888.59;;;4.89;100.00
7309;BME280;3695;53.330;9.876;2023-01-31T08:48:32;102904.97;;;5.06;100.00
7309;BME280;3695;53.330;9.876;2023-01-31T08:51:00;102880.84;;;5.16;100.00
7309;BME280;3695;53.330;9.876;2023-01-31T08:53:27;102858.09;;;4.99;100.00
7309;BME280;3695;53.330;9.876;2023-01-31T08:55:57;102846.06;;;4.94;100.00
7309;BME280;3695;53.330;9.876;2023-01-31T08:58:25;102855.63;;;5.07;100.00
7309;BME280;3695;53.330;9.876;2023-01-31T09:00:51;102845.84;;;5.27;100.00
7309;BME280;3695;53.330;9.876;2023-01-31T09:03:18;102819.41;;;5.12;100.00
7309;BME280;3695;53.330;9.876;2023-01-31T09:05:44;102812.28;;;5.22;100.00
7309;BME280;3695;53.330;9.876;2023-01-31T09:08:11;102790.78;;;5.22;100.00
7309;BME280;3695;53.330;9.876;2023-01-31T09:10:37;102789.53;;;5.26;100.00
7309;BME280;3695;53.330;9.876;2023-01-31T09:13:04;102781.78;;;5.12;100.00
7309;BME280;3695;53.330;9.876;2023-01-31T09:15:32;102816.03;;;5.10;100.00
7309;BME280;3695;53.330;9.876;2023-01-31T09:17:58;102862.31;;;5.34;100.00
7309;BME280;3695;53.330;9.876;2023-01-31T09:20:25;102910.81;;;5.12;100.00
7309;BME280;3695;53.330;9.876;2023-01-31T09:22:51;102955.75;;;5.21;100.00
7309;BME280;3695;53.330;9.876;2023-01-31T09:25:17;103004.63;;;5.15;100.00
7309;BME280;3695;53.330;9.876;2023-01-31T09:27:44;103026.94;;;4.94;100.00
7309;BME280;3695;53.330;9.876;2023-01-31T09:30:11;103085.72;;;4.88;100.00
7309;BME280;3695;53.330;9.876;2023-01-31T09:32:39;103184.78;;;4.92;100.00
7309;BME280;3695;53.330;9.876;2023-01-31T09:35:07;103232.41;;;5.01;100.00
7309;BME280;3695;53.330;9.876;2023-01-31T09:37:33;103319.41;;;5.12;100.00
7309;BME280;3695;53.330;9.876;2023-01-31T09:40:00;103353.38;;;5.01;100.00
7309;BME280;3695;53.330;9.876;2023-01-31T09:42:28;103401.25;;;4.96;100.00
7309;BME280;3695;53.330;9.876;2023-01-31T09:44:59;103469.69;;;5.03;100.00
7309;BME280;3695;53.330;9.876;2023-01-31T09:47:29;103548.09;;;4.97;100.00
7309;BME280;3695;53.330;9.876;2023-01-31T09:50:02;103619.47;;;5.01;100.00
7309;BME280;3695;53.330;9.876;2023-01-31T09:52:30;103671.28;;;5.03;100.00
7309;BME280;3695;53.330;9.876;2023-01-31T09:54:57;104074.09;;;4.97;100.00
7309;BME280;3695;53.330;9.876;2023-01-31T09:57:40;104105.28;;;4.99;100.00
7309;BME280;3695;53.330;9.876;2023-01-31T10:00:19;104098.84;;;5.02;100.00
7309;BME280;3695;53.330;9.876;2023-01-31T10:02:59;104142.72;;;5.02;100.00
7309;BME280;3695;53.330;9.876;2023-01-31T10:05:36;104396.03;;;5.07;100.00
7309;BME280;3695;53.330;9.876;2023-01-31T10:08:14;104431.00;;;5.07;100.00
7309;BME280;3695;53.330;9.876;2023-01-31T10:10:46;104496.00;;;5.00;100.00
7309;BME280;3695;53.330;9.876;2023-01-31T10:13:19;104559.69;;;5.14;100.00
7309;BME280;3695;53.330;9.876;2023-01-31T10:15:48;104600.31;;;5.09;100.00
7309;BME280;3695;53.330;9.876;2023-01-31T10:18:18;104636.47;;;5.19;100.00
7309;BME280;3695;53.330;9.876;2023-01-31T10:20:51;104645.41;;;5.20;100.00
7309;BME280;3695;53.330;9.876;2023-01-31T10:23:23;104686.56;;;5.22;100.00
7309;BME280;3695;53.330;9.876;2023-01-31T10:25:54;104692.09;;;5.19;100.00
7309;BME280;3695;53.330;9.876;2023-01-31T10:28:24;104719.78;;;5.21;100.00
7309;BME280;3695;53.330;9.876;2023-01-31T10:30:56;104700.00;;;5.22;100.00
7309;BME280;3695;53.330;9.876;2023-01-31T10:33:32;104765.00;;;5.30;100.00
7309;BME280;3695;53.330;9.876;2023-01-31T10:36:04;104795.56;;;5.29;100.00
7309;BME280;3695;53.330;9.876;2023-01-31T10:38:37;104814.28;;;5.30;100.00
7309;BME280;3695;53.330;9.876;2023-01-31T10:41:12;104803.44;;;5.32;100.00
7309;BME280;3695;53.330;9.876;2023-01-31T10:43:44;104927.13;;;5.33;100.00
7309;BME280;3695;53.330;9.876;2023-01-31T10:46:13;104934.84;;;5.40;100.00
7309;BME280;3695;53.330;9.876;2023-01-31T10:48:41;105095.34;;;5.41;100.00
7309;BME280;3695;53.330;9.876;2023-01-31T10:51:22;105122.81;;;5.47;100.00
7309;BME280;3695;53.330;9.876;2023-01-31T10:54:05;105204.19;;;5.52;100.00
7309;BME280;3695;53.330;9.876;2023-01-31T10:56:40;105218.13;;;5.43;100.00
7309;BME280;3695;53.330;9.876;2023-01-31T10:59:11;105296.16;;;5.43;100.00
7309;BME280;3695;53.330;9.876;2023-01-31T11:01:39;105422.22;;;5.52;100.00
7309;BME280;3695;53.330;9.876;2023-01-31T11:04:22;105528.56;;;5.42;100.00
7309;BME280;3695;53.330;9.876;2023-01-31T11:06:52;105628.66;;;5.50;100.00
7309;BME280;3695;53.330;9.876;2023-01-31T11:09:21;105695.63;;;5.58;100.00
7309;BME280;3695;53.330;9.876;2023-01-31T11:11:53;105762.88;;;5.59;100.00
7309;BME280;3695;53.330;9.876;2023-01-31T11:14:20;105823.97;;;5.57;100.00
7309;BME280;3695;53.330;9.876;2023-01-31T11:16:47;105945.00;;;5.60;100.00
7309;BME280;3695;53.330;9.876;2023-01-31T11:19:17;106122.94;;;5.54;100.00
7309;BME280;3695;53.330;9.876;2023-01-31T11:21:48;106320.16;;;5.61;100.00
7309;BME280;3695;53.330;9.876;2023-01-31T11:24:19;106538.41;;;5.56;100.00
7309;BME280;3695;53.330;9.876;2023-01-31T11:26:50;106732.38;;;5.53;100.00
7309;BME280;3695;53.330;9.876;2023-01-31T11:29:21;106922.56;;;5.57;100.00
7309;BME280;3695;53.330;9.876;2023-01-31T11:31:51;107138.13;;;5.53;100.00
7309;BME280;3695;53.330;9.876;2023-01-31T11:34:20;107261.84;;;5.60;100.00
7309;BME280;3695;53.330;9.876;2023-01-31T11:36:48;107972.09;;;5.63;100.00
7309;BME280;3695;53.330;9.876;2023-01-31T11:39:27;107995.41;;;5.72;100.00
7309;BME280;3695;53.330;9.876;2023-01-31T11:41:55;107930.84;;;5.55;100.00
7309;BME280;3695;53.330;9.876;2023-01-31T11:44:22;107850.72;;;5.83;100.00
7309;BME280;3695;53.330;9.876;2023-01-31T11:46:51;108005.28;;;5.73;100.00
7309;BME280;3695;53.330;9.876;2023-01-31T11:49:27;108115.72;;;5.80;100.00
7309;BME280;3695;53.330;9.876;2023-01-31T11:51:56;108279.22;;;5.78;100.00
7309;BME280;3695;53.330;9.876;2023-01-31T11:54:26;108400.50;;;5.81;100.00
7309;BME280;3695;53.330;9.876;2023-01-31T11:56:53;108513.75;;;6.06;100.00
7309;BME280;3695;53.330;9.876;2023-01-31T11:59:23;108526.28;;;5.88;100.00
7309;BME280;3695;53.330;9.876;2023-01-31T12:01:54;108621.56;;;5.92;100.00
7309;BME280;3695;53.330;9.876;2023-01-31T12:04:25;108675.50;;;5.95;100.00
7309;BME280;3695;53.330;9.876;2023-01-31T12:06:58;108769.00;;;6.05;100.00
7309;BME280;3695;53.330;9.876;2023-01-31T12:09:29;108753.69;;;5.92;100.00
7309;BME280;3695;53.330;9.876;2023-01-31T12:11:58;108797.63;;;5.85;100.00
7309;BME280;3695;53.330;9.876;2023-01-31T12:14:36;108896.59;;;5.98;100.00
7309;BME280;3695;53.330;9.876;2023-01-31T12:17:04;108980.16;;;5.93;100.00
7309;BME280;3695;53.330;9.876;2023-01-31T12:19:38;109110.38;;;5.88;100.00
7309;BME280;3695;53.330;9.876;2023-01-31T12:22:14;109264.38;;;6.09;100.00
7309;BME280;3695;53.330;9.876;2023-01-31T12:24:55;109442.28;;;6.03;100.00
7309;BME280;3695;53.330;9.876;2023-01-31T12:27:39;109642.91;;;6.11;100.00
7309;BME280;3695;53.330;9.876;2023-01-31T12:30:31;109731.16;;;6.15;100.00
7309;BME280;3695;53.330;9.876;2023-01-31T12:33:14;110342.94;;;6.24;100.00
7309;BME280;3695;53.330;9.876;2023-01-31T12:36:02;110555.97;;;6.19;100.00
7309;BME280;3695;53.330;9.876;2023-01-31T12:38:42;110576.75;;;6.22;100.00
7309;BME280;3695;53.330;9.876;2023-01-31T12:41:20;110642.97;;;6.12;100.00
7309;BME280;3695;53.330;9.876;2023-01-31T12:44:01;110772.13;;;6.27;100.00
7309;BME280;3695;53.330;9.876;2023-01-31T12:46:37;110773.06;;;6.27;100.00
7309;BME280;3695;53.330;9.876;2023-01-31T12:49:23;111042.41;;;6.36;100.00
7309;BME280;3695;53.330;9.876;2023-01-31T12:51:57;111091.94;;;6.37;100.00
7309;BME280;3695;53.330;9.876;2023-01-31T12:54:40;111250.63;;;6.44;100.00
7309;BME280;3695;53.330;9.876;2023-01-31T12:57:24;111247.72;;;6.39;100.00
7309;BME280;3695;53.330;9.876;2023-01-31T12:59:57;111334.97;;;6.38;100.00
7309;BME280;3695;53.330;9.876;2023-01-31T13:02:37;111803.50;;;6.48;100.00
7309;BME280;3695;53.330;9.876;2023-01-31T13:05:10;111760.28;;;6.30;100.00
7309;BME280;3695;53.330;9.876;2023-01-31T13:07:44;111888.56;;;6.56;100.00
7309;BME280;3695;53.330;9.876;2023-01-31T13:10:25;111858.44;;;6.48;100.00
7309;BME280;3695;53.330;9.876;2023-01-31T13:12:56;111903.50;;;6.49;100.00
7309;BME280;3695;53.330;9.876;2023-01-31T13:15:29;111883.00;;;6.53;100.00
7309;BME280;3695;53.330;9.876;2023-01-31T13:18:02;111980.91;;;6.65;100.00
7309;BME280;3695;53.330;9.876;2023-01-31T13:20:33;111997.97;;;6.64;100.00
7309;BME280;3695;53.330;9.876;2023-01-31T13:23:03;111976.84;;;6.57;100.00
7309;BME280;3695;53.330;9.876;2023-01-31T13:25:36;112046.91;;;6.54;100.00
7309;BME280;3695;53.330;9.876;2023-01-31T13:28:12;112167.63;;;6.55;100.00
7309;BME280;3695;53.330;9.876;2023-01-31T13:30:43;112347.13;;;6.60;100.00